Atwood, Indiana
Current Conditions -  °F | °C
As of 9:35 PM on Sunday 21 Dec 2014 (Local Time) from KASW Reporting Station
Haze Haze  
Wind Chill: -4°   Ceiling: Unl
Heat Index: -1°   Visibility: 5mi
Dew Point: -3°   Wind: 5mph
Humidity: 86%   Direction: 130°SE
Pressure: 30.13"   Gusts: NA
Location:  41.26°N, 85.98°W
Report Text: KASW 220235Z AUTO 13004KT 5SM BR CLR M01/M03 A3013 RMK AO2
Loading
Personal Weather Stations






























Interactive Weather Map New forecast layout! Learn more

10-Day Weather Forecast

Advertisements
Track Severe Weather on mobile